Map

Track Data

SID SEASON NUMBER BASIN SUBBASIN NAME ISO_TIME NATURE LAT LON WMO_WIND WMO_PRES WMO_AGENCY TRACK_TYPE DIST2LAND LANDFALL IFLAG USA_AGENCY USA_ATCF_ID USA_LAT USA_LON USA_RECORD USA_STATUS USA_WIND USA_PRES USA_SSHS USA_R34_NE USA_R34_SE USA_R34_SW USA_R34_NW USA_R50_NE USA_R50_SE USA_R50_SW USA_R50_NW USA_R64_NE USA_R64_SE USA_R64_SW USA_R64_NW USA_POCI USA_ROCI USA_RMW USA_EYE TOKYO_LAT TOKYO_LON TOKYO_GRADE TOKYO_WIND TOKYO_PRES TOKYO_R50_DIR TOKYO_R50_LONG TOKYO_R50_SHORT TOKYO_R30_DIR TOKYO_R30_LONG TOKYO_R30_SHORT TOKYO_LAND CMA_LAT CMA_LON CMA_CAT CMA_WIND CMA_PRES HKO_LAT HKO_LON HKO_CAT HKO_WIND HKO_PRES NEWDELHI_LAT NEWDELHI_LON NEWDELHI_GRADE NEWDELHI_WIND NEWDELHI_PRES NEWDELHI_CI NEWDELHI_DP NEWDELHI_POCI REUNION_LAT REUNION_LON REUNION_TYPE REUNION_WIND REUNION_PRES REUNION_TNUM REUNION_CI REUNION_RMW REUNION_R34_NE REUNION_R34_SE REUNION_R34_SW REUNION_R34_NW REUNION_R50_NE REUNION_R50_SE REUNION_R50_SW REUNION_R50_NW REUNION_R64_NE REUNION_R64_SE REUNION_R64_SW REUNION_R64_NW BOM_LAT BOM_LON BOM_TYPE BOM_WIND BOM_PRES BOM_TNUM BOM_CI BOM_RMW BOM_R34_NE BOM_R34_SE BOM_R34_SW BOM_R34_NW BOM_R50_NE BOM_R50_SE BOM_R50_SW BOM_R50_NW BOM_R64_NE BOM_R64_SE BOM_R64_SW BOM_R64_NW BOM_ROCI BOM_POCI BOM_EYE BOM_POS_METHOD BOM_PRES_METHOD NADI_LAT NADI_LON NADI_CAT NADI_WIND NADI_PRES WELLINGTON_LAT WELLINGTON_LON WELLINGTON_WIND WELLINGTON_PRES DS824_LAT DS824_LON DS824_STAGE DS824_WIND DS824_PRES TD9636_LAT TD9636_LON TD9636_STAGE TD9636_WIND TD9636_PRES TD9635_LAT TD9635_LON TD9635_WIND TD9635_PRES TD9635_ROCI NEUMANN_LAT NEUMANN_LON NEUMANN_CLASS NEUMANN_WIND NEUMANN_PRES MLC_LAT MLC_LON MLC_CLASS MLC_WIND MLC_PRES USA_GUST BOM_GUST BOM_GUST_PER REUNION_GUST REUNION_GUST_PER USA_SEAHGT USA_SEARAD_NE USA_SEARAD_SE USA_SEARAD_SW USA_SEARAD_NW STORM_SPEED STORM_DIR
1984150N12266 1984 35 EP MM BORIS 1984-05-28 18:00:00 TS 11.6000 -94.0000 30 hurdat_epa main 376 376 O_________O___ hurdat_epa EP021984 11.6000 -94.0000 TD 30 -1 11.6000 -94.0000 1 30 6 276
1984150N12266 1984 35 EP MM BORIS 1984-05-28 21:00:00 TS 11.6319 -94.3178 main 396 393 P_________P___ EP021984 11.6301 -94.3175 TD 32 -1 11.6373 -94.3187 1 32 6 280
1984150N12266 1984 35 EP MM BORIS 1984-05-29 00:00:00 TS 11.7000 -94.6000 35 hurdat_epa main 407 405 O_________O___ hurdat_epa EP021984 11.7000 -94.6000 TS 35 0 11.7000 -94.6000 2 35 5 292
1984150N12266 1984 35 EP MM BORIS 1984-05-29 03:00:00 TS 11.8280 -94.8212 main 413 412 P_________P___ EP021984 11.8350 -94.8225 TS 35 0 11.8072 -94.8172 2 36 5 307
1984150N12266 1984 35 EP MM BORIS 1984-05-29 06:00:00 TS 11.9880 -94.9969 35 hurdat_epa main 412 412 O_________P___ hurdat_epa EP021984 12.0000 -95.0000 TS 35 0 11.9520 -94.9876 2 37 4 315
1984150N12266 1984 35 EP MM BORIS 1984-05-29 09:00:00 TS 12.1370 -95.1417 main 412 392 P_________P___ EP021984 12.1424 -95.1426 TS 37 0 12.1209 -95.1392 2 38 4 317
1984150N12266 1984 35 EP MM BORIS 1984-05-29 12:00:00 TS 12.3000 -95.3000 40 hurdat_epa main 392 366 O_________O___ hurdat_epa EP021984 12.3000 -95.3000 TS 40 0 12.3000 -95.3000 2 40 5 313
1984150N12266 1984 35 EP MM BORIS 1984-05-29 15:00:00 TS 12.4950 -95.5345 main 366 335 P_________P___ EP021984 12.5000 -95.5425 TS 45 0 12.4800 -95.5106 2 45 6 310
1984150N12266 1984 35 EP MM BORIS 1984-05-29 18:00:00 TS 12.6912 -95.7837 50 hurdat_epa main 335 309 O_________P___ hurdat_epa EP021984 12.7000 -95.8000 TS 50 0 12.6650 -95.7349 2 50 6 309
1984150N12266 1984 35 EP MM BORIS 1984-05-29 21:00:00 TS 12.8593 -95.9974 main 309 294 P_________P___ EP021984 12.8650 -96.0075 TS 55 0 12.8425 -95.9668 2 55 5 307
1984150N12266 1984 35 EP MM BORIS 1984-05-30 00:00:00 TS 13.0000 -96.2000 60 hurdat_epa main 294 280 O_________O___ hurdat_epa EP021984 13.0000 -96.2000 TS 60 0 13.0000 -96.2000 2 60 5 303
1984150N12266 1984 35 EP MM BORIS 1984-05-30 03:00:00 TS 13.1140 -96.3997 main 280 268 P_________P___ EP021984 13.1075 -96.3925 TS 60 0 13.1337 -96.4210 2 61 5 298
1984150N12266 1984 35 EP MM BORIS 1984-05-30 06:00:00 TS 13.2112 -96.6106 60 hurdat_epa main 268 257 O_________P___ hurdat_epa EP021984 13.2000 -96.6000 TS 60 0 13.2449 -96.6426 2 62 5 295
1984150N12266 1984 35 EP MM BORIS 1984-05-30 09:00:00 TS 13.3140 -96.8488 main 258 248 P_________P___ EP021984 13.3075 -96.8425 TS 62 0 13.3337 -96.8679 2 63 5 292
1984150N12266 1984 35 EP MM BORIS 1984-05-30 12:00:00 TS 13.4000 -97.1000 65 hurdat_epa main 252 246 O_________O___ hurdat_epa EP021984 13.4000 -97.1000 HU 65 1 13.4000 -97.1000 3 65 5 287
1984150N12266 1984 35 EP MM BORIS 1984-05-30 15:00:00 TS 13.4604 -97.3543 main 250 250 P_________P___ EP021984 13.4650 -97.3500 HU 60 0 13.4467 -97.3673 3 61 5 281
1984150N12266 1984 35 EP MM BORIS 1984-05-30 18:00:00 TS 13.4932 -97.6094 55 hurdat_epa main 258 258 O_________P___ hurdat_epa EP021984 13.5000 -97.6000 TS 55 0 13.4727 -97.6376 3 57 5 274
1984150N12266 1984 35 EP MM BORIS 1984-05-30 21:00:00 TS 13.4968 -97.8767 main 273 273 P_________P___ EP021984 13.5000 -97.8725 TS 52 0 13.4873 -97.8891 3 53 5 271
1984150N12266 1984 35 EP MM BORIS 1984-05-31 00:00:00 TS 13.5000 -98.1000 50 hurdat_epa main 281 281 O_________O___ hurdat_epa EP021984 13.5000 -98.1000 TS 50 0 13.5000 -98.1000 2 50 3 278
1984150N12266 1984 35 EP MM BORIS 1984-05-31 03:00:00 TS 13.5437 -98.2266 main 283 272 P_________P___ EP021984 13.5500 -98.2225 TS 50 0 13.5248 -98.2391 2 48 2 293
1984150N12266 1984 35 EP MM BORIS 1984-05-31 06:00:00 TS 13.5875 -98.3094 50 hurdat_epa main 273 273 O_________P___ hurdat_epa EP021984 13.6000 -98.3000 TS 50 0 13.5498 -98.3375 2 47 2 288
1984150N12266 1984 35 EP MM BORIS 1984-05-31 09:00:00 TS 13.5993 -98.3987 main 276 276 P_________P___ EP021984 13.6075 -98.3925 TS 47 0 13.5749 -98.4172 2 46 2 274
1984150N12266 1984 35 EP MM BORIS 1984-05-31 12:00:00 TS 13.6000 -98.5000 45 hurdat_epa main 279 279 O_________O___ hurdat_epa EP021984 13.6000 -98.5000 TS 45 0 13.6000 -98.5000 2 45 2 271
1984150N12266 1984 35 EP MM BORIS 1984-05-31 15:00:00 TS 13.6047 -98.6450 main 282 282 P_________P___ EP021984 13.5925 -98.6500 TS 42 0 13.6413 -98.6300 2 43 3 274
1984150N12266 1984 35 EP MM BORIS 1984-05-31 18:00:00 TS 13.6200 -98.7912 40 hurdat_epa main 289 283 O_________P___ hurdat_epa EP021984 13.6000 -98.8000 TS 40 0 13.6800 -98.7649 2 42 3 285
1984150N12266 1984 35 EP MM BORIS 1984-05-31 21:00:00 TS 13.6747 -98.9093 main 283 283 P_________P___ EP021984 13.6650 -98.9150 TS 40 0 13.7038 -98.8925 2 41 2 292
1984150N12266 1984 35 EP MM BORIS 1984-06-01 00:00:00 TS 13.7000 -99.0000 40 hurdat_epa main 287 287 O_________O___ hurdat_epa EP021984 13.7000 -99.0000 TS 40 0 13.7000 -99.0000 2 40 2 252
1984150N12266 1984 35 EP MM BORIS 1984-06-01 03:00:00 TS 13.6267 -99.0620 main 302 302 P_________P___ EP021984 13.6150 -99.0575 TS 37 0 13.6618 -99.0757 2 38 2 211
1984150N12266 1984 35 EP MM BORIS 1984-06-01 06:00:00 TS 13.5237 -99.1075 35 hurdat_epa main 312 312 O_________P___ hurdat_epa EP021984 13.5000 -99.1000 TS 35 0 13.5950 -99.1300 2 37 2 209
1984150N12266 1984 35 EP MM BORIS 1984-06-01 09:00:00 TS 13.4639 -99.1548 main 317 317 P_________P___ EP021984 13.4500 -99.1500 TS 35 0 13.5056 -99.1694 2 36 2 216
1984150N12266 1984 35 EP MM BORIS 1984-06-01 12:00:00 TS 13.4000 -99.2000 35 hurdat_epa main 327 327 O_________O___ hurdat_epa EP021984 13.4000 -99.2000 TS 35 0 13.4000 -99.2000 2 35 2 212
1984150N12266 1984 35 EP MM BORIS 1984-06-01 15:00:00 TS 13.3096 -99.2542 main 342 342 P_________P___ EP021984 13.3150 -99.2575 TS 32 -1 13.2934 -99.2444 2 33 2 202
1984150N12266 1984 35 EP MM BORIS 1984-06-01 18:00:00 TS 13.1931 -99.2950 30 hurdat_epa main 352 352 O_________P___ hurdat_epa EP021984 13.2000 -99.3000 TD 30 -1 13.1725 -99.2801 2 32 3 192
1984150N12266 1984 35 EP MM BORIS 1984-06-01 21:00:00 TS 13.0532 -99.3114 main 362 362 P_________P___ EP021984 13.0575 -99.3150 TD 30 -1 13.0403 -99.3007 2 31 3 183
1984150N12266 1984 35 EP MM BORIS 1984-06-02 00:00:00 TS 12.9000 -99.3000 30 hurdat_epa main 382 382 O_________O___ hurdat_epa EP021984 12.9000 -99.3000 TD 30 -1 12.9000 -99.3000 1 30 3 171
1984150N12266 1984 35 EP MM BORIS 1984-06-02 03:00:00 TS 12.7508 -99.2579 main 393 393 P_________P___ EP021984 12.7500 -99.2575 TD 27 -1 12.7531 -99.2593 1 28 3 163
1984150N12266 1984 35 EP MM BORIS 1984-06-02 06:00:00 TS 12.6000 -99.2000 25 hurdat_epa main 409 409 O_________P___ hurdat_epa EP021984 12.6000 -99.2000 TD 25 -1 12.6000 -99.1999 1 27 3 160
1984150N12266 1984 35 EP MM BORIS 1984-06-02 09:00:00 TS 12.4436 -99.1420 main 426 426 P_________P___ EP021984 12.4425 -99.1425 TD 25 -1 12.4469 -99.1405 1 26 3 163
1984150N12266 1984 35 EP MM BORIS 1984-06-02 12:00:00 TS 12.3000 -99.1000 25 hurdat_epa main 437 437 O_________O___ hurdat_epa EP021984 12.3000 -99.1000 TD 25 -1 12.3000 -99.1000 1 25 3 168
1984150N12266 1984 35 EP MM BORIS 1984-06-02 15:00:00 TS 12.1899 -99.0876 main 447 447 P_________P___ EP021984 12.2000 -99.0850 TD 25 -1 12.1597 -99.0954 1 26 2 0
1984150N12266 1984 35 EP MM BORIS 1984-06-02 18:00:00 TS 12.0819 -99.1031 25 hurdat_epa main 458 458 O_________P___ hurdat_epa EP021984 12.1000 -99.1000 TD 25 -1 12.0275 -99.1125 1 27 3 192
1984150N12266 1984 35 EP MM BORIS 1984-06-02 21:00:00 TS 11.9335 -99.1440 main 480 480 P_________P___ EP021984 11.9425 -99.1425 TD 27 -1 11.9066 -99.1485 1 28 3 199
1984150N12266 1984 35 EP MM BORIS 1984-06-03 00:00:00 TS 11.8000 -99.2000 30 hurdat_epa main 493 493 O_________O___ hurdat_epa EP021984 11.8000 -99.2000 TD 30 -1 11.8000 -99.2000 1 30 2 205
1984150N12266 1984 35 EP MM BORIS 1984-06-03 03:00:00 TS 11.7345 -99.2460 main 504 504 P_________P___ EP021984 11.7425 -99.2425 TD 30 -1 11.7106 -99.2566 1 30 2 223
1984150N12266 1984 35 EP MM BORIS 1984-06-03 06:00:00 TS 11.6837 -99.3069 30 hurdat_epa main 507 507 O_________P___ hurdat_epa EP021984 11.7000 -99.3000 TD 30 -1 11.6350 -99.3275 1 30 2 227
1984150N12266 1984 35 EP MM BORIS 1984-06-03 09:00:00 TS 11.5973 -99.3968 main 522 522 P_________P___ EP021984 11.6075 -99.3925 TD 30 -1 11.5669 -99.4097 1 30 3 226
1984150N12266 1984 35 EP MM BORIS 1984-06-03 12:00:00 TS 11.5000 -99.5000 30 hurdat_epa main 536 536 O_________O___ hurdat_epa EP021984 11.5000 -99.5000 TD 30 -1 11.5000 -99.5000 1 30 3 224
1984150N12266 1984 35 EP MM BORIS 1984-06-03 15:00:00 TS 11.3915 -99.6003 main 550 550 P_________P___ EP021984 11.3925 -99.6000 TD 27 -1 11.3885 -99.6010 1 28 3 224
1984150N12266 1984 35 EP MM BORIS 1984-06-03 18:00:00 TS 11.2956 -99.7019 25 hurdat_epa main 564 564 O_________P___ hurdat_epa EP021984 11.3000 -99.7000 TD 25 -1 11.2825 -99.7076 1 27 3 228
1984150N12266 1984 35 EP MM BORIS 1984-06-03 21:00:00 TS 11.2176 -99.8026 main 579 579 P_________P___ EP021984 11.2200 -99.8000 TD 25 -1 11.2103 -99.8104 1 26 2 244
1984150N12266 1984 35 EP MM BORIS 1984-06-04 00:00:00 TS 11.2000 -99.9000 25 hurdat_epa main 583 577 O_________O___ hurdat_epa EP021984 11.2000 -99.9000 TD 25 -1 11.2000 -99.9000 1 25 2 283
1984150N12266 1984 35 EP MM BORIS 1984-06-04 03:00:00 TS 11.2631 -100.008 main 577 571 P_________P___ EP021984 11.2625 -100.015 TD 25 -1 11.2650 -99.9886 1 25 3 317
1984150N12266 1984 35 EP MM BORIS 1984-06-04 06:00:00 TS 11.3987 -100.090 25 hurdat_epa main 571 550 O_________P___ hurdat_epa EP021984 11.4000 -100.100 TD 25 -1 11.3950 -100.060 1 25 3 342
1984150N12266 1984 35 EP MM BORIS 1984-06-04 09:00:00 TS 11.5775 -100.117 main 550 529 P_________P___ EP021984 11.5775 -100.123 TD 25 -1 11.5775 -100.101 1 25 4 358
1984150N12266 1984 35 EP MM BORIS 1984-06-04 12:00:00 TS 11.8000 -100.100 25 hurdat_epa main 529 507 O_________O___ hurdat_epa EP021984 11.8000 -100.100 TD 25 -1 11.8000 -100.100 1 25 5 7
1984150N12266 1984 35 EP MM BORIS 1984-06-04 15:00:00 TS 12.0320 -100.060 main 507 472 P_________P___ EP021984 12.0350 -100.072 TD 25 -1 12.0229 -100.023 1 26 5 14
1984150N12266 1984 35 EP MM BORIS 1984-06-04 18:00:00 TS 12.2957 -99.9770 25 hurdat_epa main 472 437 O_________P___ hurdat_epa EP021984 12.3000 -100.000 TD 25 -1 12.2826 -99.9079 1 27 6 21
1984150N12266 1984 35 EP MM BORIS 1984-06-04 21:00:00 TS 12.5828 -99.8459 main 433 398 P_________P___ EP021984 12.5850 -99.8650 TD 27 -1 12.5760 -99.7887 1 28 7 24
1984150N12266 1984 35 EP MM BORIS 1984-06-05 00:00:00 TS 12.9000 -99.7000 30 hurdat_epa main 398 360 O_________O___ hurdat_epa EP021984 12.9000 -99.7000 TD 30 -1 12.9000 -99.7000 1 30 7 24
1984150N12266 1984 35 EP MM BORIS 1984-06-05 03:00:00 TS 13.2500 -99.5344 main 360 317 P_________P___ EP021984 13.2350 -99.4977 TD 30 -1 13.2948 -99.6444 1 30 8 18
1984150N12266 1984 35 EP MM BORIS 1984-06-05 06:00:00 TS 13.6274 -99.4575 30 hurdat_epa main 317 274 O_________P___ hurdat_epa EP021984 13.6000 -99.4000 TD 30 -1 13.7097 -99.6300 1 30 8 357
1984150N12266 1984 35 EP MM BORIS 1984-06-05 09:00:00 TS 14.0518 -99.5681 main 268 248 P_________P___ EP021984 14.0375 -99.5322 TD 30 -1 14.0948 -99.6756 1 30 8 337
1984150N12266 1984 35 EP MM BORIS 1984-06-05 12:00:00 TS 14.4000 -99.8000 30 hurdat_epa main 248 238 O_________O___ hurdat_epa EP021984 14.4000 -99.8000 TD 30 -1 14.4000 -99.8000 1 30 7 316
1984150N12266 1984 35 EP MM BORIS 1984-06-05 15:00:00 TS 14.5598 -100.072 main 238 238 P_________P___ EP021984 14.5525 -100.085 TD 30 -1 14.5818 -100.033 1 28 6 291
1984150N12266 1984 35 EP MM BORIS 1984-06-05 18:00:00 TS 14.6195 -100.385 30 hurdat_epa main 246 243 O_________P___ hurdat_epa EP021984 14.6000 -100.400 TD 30 -1 14.6779 -100.340 1 27 6 280
1984150N12266 1984 35 EP MM BORIS 1984-06-05 21:00:00 TS 14.6706 -100.694 main 248 248 P_________P___ EP021984 14.6575 -100.700 TD 27 -1 14.7100 -100.677 1 26 6 278
1984150N12266 1984 35 EP MM BORIS 1984-06-06 00:00:00 TS 14.7000 -101.000 25 hurdat_epa main 263 263 O_________O___ hurdat_epa EP021984 14.7000 -101.000 TD 25 -1 14.7000 -101.000 1 25 6 278
1984150N12266 1984 35 EP MM BORIS 1984-06-06 03:00:00 TS 14.7544 -101.307 main 271 271 P_________P___ EP021984 14.7800 -101.322 TD 25 -1 14.6777 -101.259 1 23 6 276
1984150N12266 1984 35 EP MM BORIS 1984-06-06 06:00:00 TS 14.7556 -101.574 25 hurdat_epa main 281 281 O_________P___ hurdat_epa EP021984 14.8000 -101.600 TD 25 -1 14.6224 -101.495 1 22 5 254
1984150N12266 1984 35 EP MM BORIS 1984-06-06 09:00:00 TS 14.6320 -101.757 main 310 310 P_________P___ EP021984 14.6574 -101.773 TD 22 -1 14.5559 -101.709 1 21 4 231
1984150N12266 1984 35 EP MM BORIS 1984-06-06 12:00:00 TS 14.5000 -101.900 20 hurdat_epa main 324 324 O_________O___ hurdat_epa EP021984 14.5000 -101.900 TD 20 -1 14.5000 -101.900 1 20 3 242
1984150N12266 1984 35 EP MM BORIS 1984-06-06 15:00:00 TS 14.4805 -102.055 main 331 331 P_________P___ EP021984 14.4775 -102.050 TD 20 -1 14.4896 -102.071 1 20 3 270
1984150N12266 1984 35 EP MM BORIS 1984-06-06 18:00:00 TS 14.4981 -102.206 20 hurdat_epa main 334 334 O_________P___ hurdat_epa EP021984 14.5000 -102.200 TD 20 -1 14.4924 -102.222 1 20 3 275
1984150N12266 1984 35 EP MM BORIS 1984-06-06 21:00:00 TS 14.5054 -102.353 main 342 342 P_________P___ EP021984 14.5075 -102.350 TD 20 -1 14.4990 -102.362 1 20 3 270
1984150N12266 1984 35 EP MM BORIS 1984-06-07 00:00:00 TS 14.5000 -102.500 20 hurdat_epa main 347 347 O_________O___ hurdat_epa EP021984 14.5000 -102.500 TD 20 -1 14.5000 -102.500 1 20 3 260
1984150N12266 1984 35 EP MM BORIS 1984-06-07 03:00:00 TS 14.4570 -102.650 main 357 357 P_________P___ EP021984 14.4500 -102.650 TD 20 -1 14.4781 -102.650 1 20 3 253
1984150N12266 1984 35 EP MM BORIS 1984-06-07 06:00:00 TS 14.4125 -102.800 20 hurdat_epa main 372 372 O_________P___ hurdat_epa EP021984 14.4000 -102.800 TD 20 -1 14.4500 -102.800 1 20 3 259
1984150N12266 1984 35 EP MM BORIS 1984-06-07 09:00:00 TS 14.3998 -102.950 main 377 382 P_________P___ EP021984 14.3925 -102.950 TD 20 -1 14.4218 -102.950 1 20 3 268
1984150N12266 1984 35 EP MM BORIS 1984-06-07 12:00:00 TS 14.4000 -103.100 20 hurdat_epa main 388 388 O_________O___ hurdat_epa EP021984 14.4000 -103.100 TD 20 -1 14.4000 -103.100 1 20 3 270
1984150N12266 1984 35 EP MM BORIS 1984-06-07 15:00:00 TS 14.3992 -103.250 main 394 394 P_________P___ EP021984 14.4000 -103.250 TD 20 -1 14.3968 -103.250 1 20 3 270
1984150N12266 1984 35 EP MM BORIS 1984-06-07 18:00:00 TS 14.4000 -103.400 20 hurdat_epa main 407 407 O_________P___ hurdat_epa EP021984 14.4000 -103.400 TD 20 -1 14.4000 -103.400 1 20 3 270
1984150N12266 1984 35 EP MM BORIS 1984-06-07 21:00:00 TS 14.4008 -103.550 main 412 412 P_________P___ EP021984 14.4000 -103.550 TD 20 -1 14.4031 -103.550 1 20 3 270
1984150N12266 1984 35 EP MM BORIS 1984-06-08 00:00:00 TS 14.4000 -103.700 20 hurdat_epa main 419 419 O_________O___ hurdat_epa EP021984 14.4000 -103.700 TD 20 -1 14.4000 -103.700 1 20 3 270
1984150N12266 1984 35 EP MM BORIS 1984-06-08 03:00:00 TS 14.4001 -103.850 main 426 426 P_________P___ EP021984 14.4075 -103.850 TD 20 -1 14.3781 -103.850 1 20 3 268
1984150N12266 1984 35 EP MM BORIS 1984-06-08 06:00:00 TS 14.3875 -104.000 20 hurdat_epa main 429 429 O_________P___ hurdat_epa EP021984 14.4000 -104.000 TD 20 -1 14.3500 -104.000 1 20 3 259
1984150N12266 1984 35 EP MM BORIS 1984-06-08 09:00:00 TS 14.3430 -104.150 main 447 447 P_________P___ EP021984 14.3500 -104.150 TD 20 -1 14.3218 -104.150 1 20 3 253
1984150N12266 1984 35 EP MM BORIS 1984-06-08 12:00:00 TS 14.3000 -104.300 20 hurdat_epa main 450 450 O_________O___ hurdat_epa EP021984 14.3000 -104.300 TD 20 -1 14.3000 -104.300 1 20 3 260
1984150N12266 1984 35 EP MM BORIS 1984-06-08 15:00:00 TS 14.2926 -104.450 main 454 454 P_________P___ EP021984 14.2925 -104.450 TD 20 -1 14.2928 -104.450 1 20 3 270
1984150N12266 1984 35 EP MM BORIS 1984-06-08 18:00:00 TS 14.2981 -104.600 20 hurdat_epa main 461 461 O_________P___ hurdat_epa EP021984 14.3000 -104.600 TD 20 -1 14.2925 -104.600 1 20 3 271
1984150N12266 1984 35 EP MM BORIS 1984-06-08 21:00:00 TS 14.2990 -104.750 main 464 468 P_________P___ EP021984 14.3000 -104.750 TD 20 -1 14.2959 -104.750 1 20 3 270
1984150N12266 1984 35 EP MM BORIS 1984-06-09 00:00:00 TS 14.3000 -104.900 20 hurdat_epa main 471 471 O_________O___ hurdat_epa EP021984 14.3000 -104.900 TD 20 -1 14.3000 -104.900 1 20 3 270
1984150N12266 1984 35 EP MM BORIS 1984-06-09 03:00:00 TS 14.3010 -105.050 main 475 479 P_________P___ EP021984 14.3000 -105.050 TD 20 -1 14.3040 -105.050 1 20 3 270
1984150N12266 1984 35 EP MM BORIS 1984-06-09 06:00:00 TS 14.3019 -105.200 20 hurdat_epa main 483 483 O_________P___ hurdat_epa EP021984 14.3000 -105.200 TD 20 -1 14.3075 -105.200 1 20 3 271
1984150N12266 1984 35 EP MM BORIS 1984-06-09 09:00:00 TS 14.3074 -105.350 main 487 487 P_________P___ EP021984 14.3075 -105.350 TD 20 -1 14.3072 -105.350 1 20 3 270
1984150N12266 1984 35 EP MM BORIS 1984-06-09 12:00:00 TS 14.3000 -105.500 20 hurdat_epa main 495 495 O_________O___ hurdat_epa EP021984 14.3000 -105.500 TD 20 -1 14.3000 -105.500 1 20 3 260
1984150N12266 1984 35 EP MM BORIS 1984-06-09 15:00:00 TS 14.2570 -105.650 main 505 505 P_________P___ EP021984 14.2500 -105.650 TD 20 -1 14.2781 -105.650 1 20 3 253
1984150N12266 1984 35 EP MM BORIS 1984-06-09 18:00:00 TS 14.2125 -105.800 20 hurdat_epa main 520 520 O_________P___ hurdat_epa EP021984 14.2000 -105.800 TD 20 -1 14.2500 -105.800 1 20 3 259
1984150N12266 1984 35 EP MM BORIS 1984-06-09 21:00:00 TS 14.1998 -105.950 main 525 530 P_________P___ EP021984 14.1925 -105.950 TD 20 -1 14.2218 -105.950 1 20 3 268
1984150N12266 1984 35 EP MM BORIS 1984-06-10 00:00:00 TS 14.2000 -106.100 20 hurdat_epa main 536 536 O_________O___ hurdat_epa EP021984 14.2000 -106.100 TD 20 -1 14.2000 -106.100 1 20 3 270
1984150N12266 1984 35 EP MM BORIS 1984-06-10 03:00:00 TS 14.1992 -106.250 main 541 541 P_________P___ EP021984 14.2000 -106.250 TD 20 -1 14.1968 -106.250 1 20 3 270
1984150N12266 1984 35 EP MM BORIS 1984-06-10 06:00:00 TS 14.2000 -106.400 20 hurdat_epa main 553 553 O_________P___ hurdat_epa EP021984 14.2000 -106.400 TD 20 -1 14.2000 -106.400 1 20 3 270
1984150N12266 1984 35 EP MM BORIS 1984-06-10 09:00:00 TS 14.2008 -106.550 main 559 559 P_________P___ EP021984 14.2000 -106.550 TD 20 -1 14.2031 -106.550 1 20 3 270
1984150N12266 1984 35 EP MM BORIS 1984-06-10 12:00:00 TS 14.2000 -106.700 20 hurdat_epa main 572 572 O_________O___ hurdat_epa EP021984 14.2000 -106.700 TD 20 -1 14.2000 -106.700 1 20 3 270
1984150N12266 1984 35 EP MM BORIS 1984-06-10 15:00:00 TS 14.2001 -106.850 main 585 585 P_________P___ EP021984 14.2075 -106.850 TD 20 -1 14.1781 -106.850 1 20 3 268
1984150N12266 1984 35 EP MM BORIS 1984-06-10 18:00:00 TS 14.1875 -107.000 20 hurdat_epa main 591 591 O_________P___ hurdat_epa EP021984 14.2000 -107.000 TD 20 -1 14.1500 -107.000 1 20 3 259
1984150N12266 1984 35 EP MM BORIS 1984-06-10 21:00:00 TS 14.1430 -107.150 main 614 614 P_________P___ EP021984 14.1500 -107.150 TD 20 -1 14.1218 -107.150 1 20 3 253
1984150N12266 1984 35 EP MM BORIS 1984-06-11 00:00:00 TS 14.1000 -107.300 20 hurdat_epa main 620 620 O_________O___ hurdat_epa EP021984 14.1000 -107.300 TD 20 -1 14.1000 -107.300 1 20 3 260
1984150N12266 1984 35 EP MM BORIS 1984-06-11 03:00:00 TS 14.0926 -107.450 main 628 628 P_________P___ EP021984 14.0925 -107.450 TD 20 -1 14.0928 -107.450 1 20 3 270
1984150N12266 1984 35 EP MM BORIS 1984-06-11 06:00:00 TS 14.0981 -107.600 20 hurdat_epa main 642 642 O_________P___ hurdat_epa EP021984 14.1000 -107.600 TD 20 -1 14.0925 -107.600 1 20 3 271
1984150N12266 1984 35 EP MM BORIS 1984-06-11 09:00:00 TS 14.0990 -107.750 main 648 654 P_________P___ EP021984 14.1000 -107.750 TD 20 -1 14.0959 -107.750 1 20 3 270
1984150N12266 1984 35 EP MM BORIS 1984-06-11 12:00:00 TS 14.1000 -107.900 20 hurdat_epa main 659 659 O_________O___ hurdat_epa EP021984 14.1000 -107.900 TD 20 -1 14.1000 -107.900 1 20 3 270
1984150N12266 1984 35 EP MM BORIS 1984-06-11 15:00:00 TS 14.1010 -108.050 main 664 670 P_________P___ EP021984 14.1000 -108.050 TD 20 -1 14.1040 -108.050 1 20 3 270
1984150N12266 1984 35 EP MM BORIS 1984-06-11 18:00:00 TS 14.1019 -108.200 20 hurdat_epa main 675 675 O_________P___ hurdat_epa EP021984 14.1000 -108.200 TD 20 -1 14.1075 -108.200 1 20 3 271
1984150N12266 1984 35 EP MM BORIS 1984-06-11 21:00:00 TS 14.1074 -108.350 main 681 681 P_________P___ EP021984 14.1075 -108.350 TD 20 -1 14.1072 -108.350 1 20 3 270
1984150N12266 1984 35 EP MM BORIS 1984-06-12 00:00:00 TS 14.1000 -108.500 20 hurdat_epa main 693 693 O_________O___ hurdat_epa EP021984 14.1000 -108.500 TD 20 -1 14.1000 -108.500 1 20 3 260
1984150N12266 1984 35 EP MM BORIS 1984-06-12 03:00:00 TS 14.0560 -108.646 main 699 699 P_________P___ EP021984 14.0500 -108.650 TD 20 -1 14.0740 -108.634 1 20 3 252
1984150N12266 1984 35 EP MM BORIS 1984-06-12 06:00:00 TS 14.0106 -108.793 20 hurdat_epa main 721 721 O_________P___ hurdat_epa EP021984 14.0000 -108.800 TD 20 -1 14.0423 -108.770 1 20 3 256
1984150N12266 1984 35 EP MM BORIS 1984-06-12 09:00:00 TS 13.9923 -108.915 main 727 727 P_________P___ EP021984 13.9849 -108.913 TD 20 -1 14.0145 -108.921 1 20 3 268
1984150N12266 1984 35 EP MM BORIS 1984-06-12 12:00:00 TS 14.0000 -109.100 20 hurdat_epa main 740 740 O_________O___ hurdat_epa EP021984 14.0000 -109.100 TD 20 -1 14.0000 -109.100 1 20 5 275
1984150N12266 1984 35 EP MM BORIS 1984-06-12 15:00:00 TS 14.0424 -109.465 main 767 759 P_________P___ EP021984 14.0502 -109.507 TD 25 -1 14.0189 -109.337 1 22 7 277
1984150N12266 1984 35 EP MM BORIS 1984-06-12 18:00:00 TS 14.0876 -109.825 30 hurdat_epa main 780 780 O_________P___ hurdat_epa EP021984 14.1000 -109.900 TD 30 -1 14.0502 -109.600 1 25 5 277
1984150N12266 1984 35 EP MM BORIS 1984-06-12 21:00:00 TS 14.1065 -109.994 main 795 795 P_________P___ EP021984 14.1149 -110.038 TD 30 -1 14.0814 -109.862 1 27 3 273
1984150N12266 1984 35 EP MM BORIS 1984-06-13 00:00:00 TS 14.1000 -110.100 30 hurdat_epa main 802 802 O_________O___ hurdat_epa EP021984 14.1000 -110.100 TD 30 -1 14.1000 -110.100 1 30 3 259
1984150N12266 1984 35 EP MM BORIS 1984-06-13 03:00:00 TS 14.0558 -110.253 main 817 817 P_________P___ EP021984 14.0500 -110.243 TD 30 -1 14.0730 -110.283 1 30 3 253
1984150N12266 1984 35 EP MM BORIS 1984-06-13 06:00:00 TS 14.0087 -110.409 30 hurdat_epa main 833 833 O_________P___ hurdat_epa EP021984 14.0000 -110.400 TD 30 -1 14.0349 -110.438 1 30 3 258
1984150N12266 1984 35 EP MM BORIS 1984-06-13 09:00:00 TS 13.9898 -110.562 main 848 848 P_________P___ EP021984 13.9850 -110.558 TD 30 -1 14.0043 -110.574 1 30 3 268
1984150N12266 1984 35 EP MM BORIS 1984-06-13 12:00:00 TS 14.0000 -110.700 30 hurdat_epa main 856 856 O_________O___ hurdat_epa EP021984 14.0000 -110.700 TD 30 -1 14.0000 -110.700 1 30 2 281
1984150N12266 1984 35 EP MM BORIS 1984-06-13 15:00:00 TS 14.0357 -110.803 main 864 856 P_________P___ EP021984 14.0350 -110.800 TD 35 0 14.0380 -110.812 1 35 2 297
1984150N12266 1984 35 EP MM BORIS 1984-06-13 18:00:00 TS 14.1012 -110.905 40 hurdat_epa main 863 863 O_________P___ hurdat_epa EP021984 14.1000 -110.900 TS 40 0 14.1048 -110.920 1 40 3 305
1984150N12266 1984 35 EP MM BORIS 1984-06-13 21:00:00 TS 14.1929 -111.037 main 863 863 P_________P___ EP021984 14.1925 -111.035 TS 45 0 14.1942 -111.043 1 45 3 305
1984150N12266 1984 35 EP MM BORIS 1984-06-14 00:00:00 TS 14.3000 -111.200 50 hurdat_epa main 870 870 O_________O___ hurdat_epa EP021984 14.3000 -111.200 TS 50 0 14.3000 -111.200 2 50 4 300
1984150N12266 1984 35 EP MM BORIS 1984-06-14 03:00:00 TS 14.3869 -111.390 main 878 878 P_________P___ EP021984 14.3925 -111.378 TS 50 0 14.3702 -111.426 2 50 5 295
1984150N12266 1984 35 EP MM BORIS 1984-06-14 06:00:00 TS 14.4901 -111.621 50 hurdat_epa main 886 886 O_________P___ hurdat_epa EP021984 14.5000 -111.600 TS 50 0 14.4602 -111.685 2 50 6 293
1984150N12266 1984 35 EP MM BORIS 1984-06-14 09:00:00 TS 14.6026 -111.913 main 904 904 P_________P___ EP021984 14.6051 -111.900 TS 50 0 14.5952 -111.951 2 50 6 299
1984150N12266 1984 35 EP MM BORIS 1984-06-14 12:00:00 TS 14.8000 -112.200 50 hurdat_epa main 915 908 O_________O___ hurdat_epa EP021984 14.8000 -112.200 TS 50 0 14.8000 -112.200 2 50 7 318
1984150N12266 1984 35 EP MM BORIS 1984-06-14 15:00:00 TS 15.1542 -112.419 main 897 871 P_________P___ EP021984 15.1700 -112.422 TS 47 0 15.1071 -112.409 2 47 9 333
1984150N12266 1984 35 EP MM BORIS 1984-06-14 18:00:00 TS 15.5706 -112.599 45 hurdat_epa main 860 832 O_________P___ hurdat_epa EP021984 15.6000 -112.600 TS 45 0 15.4824 -112.595 2 45 9 337
1984150N12266 1984 35 EP MM BORIS 1984-06-14 21:00:00 TS 15.9410 -112.763 main 836 798 P_________P___ EP021984 15.9575 -112.765 TS 42 0 15.8915 -112.759 2 42 8 338
1984150N12266 1984 35 EP MM BORIS 1984-06-15 00:00:00 TS 16.3000 -112.900 40 hurdat_epa main 798 771 O_________O___ hurdat_epa EP021984 16.3000 -112.900 TS 40 0 16.3000 -112.900 2 40 8 341
1984150N12266 1984 35 EP MM BORIS 1984-06-15 03:00:00 TS 16.6538 -113.011 main 761 735 P_________P___ EP021984 16.6500 -113.008 TS 40 0 16.6652 -113.022 2 40 7 344
1984150N12266 1984 35 EP MM BORIS 1984-06-15 06:00:00 TS 17.0056 -113.106 40 hurdat_epa main 735 709 O_________P___ hurdat_epa EP021984 17.0000 -113.100 TS 40 0 17.0224 -113.123 2 40 7 346
1984150N12266 1984 35 EP MM BORIS 1984-06-15 09:00:00 TS 17.3546 -113.198 main 699 675 P_________P___ EP021984 17.3500 -113.193 TS 40 0 17.3684 -113.212 2 40 7 345
1984150N12266 1984 35 EP MM BORIS 1984-06-15 12:00:00 TS 17.7000 -113.300 40 hurdat_epa main 675 652 O_________O___ hurdat_epa EP021984 17.7000 -113.300 TS 40 0 17.7000 -113.300 2 40 7 341
1984150N12266 1984 35 EP MM BORIS 1984-06-15 15:00:00 TS 18.0585 -113.446 main 642 627 P_________P___ EP021984 18.0650 -113.457 TS 37 0 18.0387 -113.412 2 38 7 339
1984150N12266 1984 35 EP MM BORIS 1984-06-15 18:00:00 TS 18.3900 -113.581 35 hurdat_epa main 627 606 O_________P___ hurdat_epa EP021984 18.4000 -113.600 TS 35 0 18.3600 -113.522 2 37 6 342
1984150N12266 1984 35 EP MM BORIS 1984-06-15 21:00:00 TS 18.6672 -113.660 main 606 589 P_________P___ EP021984 18.6725 -113.673 TS 35 0 18.6513 -113.621 2 36 5 348
1984150N12266 1984 35 EP MM BORIS 1984-06-16 00:00:00 TS 18.9000 -113.700 35 hurdat_epa main 589 572 O_________O___ hurdat_epa EP021984 18.9000 -113.700 TS 35 0 18.9000 -113.700 2 35 5 356
1984150N12266 1984 35 EP MM BORIS 1984-06-16 03:00:00 TS 19.1172 -113.711 main 572 556 P_________P___ EP021984 19.1225 -113.700 TS 35 0 19.1012 -113.743 2 35 4 0
1984150N12266 1984 35 EP MM BORIS 1984-06-16 06:00:00 TS 19.2900 -113.716 35 hurdat_epa main 556 547 O_________P___ hurdat_epa EP021984 19.3000 -113.700 TS 35 0 19.2599 -113.765 2 35 3 353
1984150N12266 1984 35 EP MM BORIS 1984-06-16 09:00:00 TS 19.4084 -113.752 main 555 547 P_________P___ EP021984 19.4150 -113.743 TS 35 0 19.3887 -113.780 2 35 2 340
1984150N12266 1984 35 EP MM BORIS 1984-06-16 12:00:00 TS 19.5000 -113.800 35 hurdat_epa main 547 539 O_________O___ hurdat_epa EP021984 19.5000 -113.800 TS 35 0 19.5000 -113.800 2 35 2 335
1984150N12266 1984 35 EP MM BORIS 1984-06-16 15:00:00 TS 19.6046 -113.844 main 539 539 P_________P___ EP021984 19.6000 -113.850 TS 37 0 19.6184 -113.827 2 36 2 337
1984150N12266 1984 35 EP MM BORIS 1984-06-16 18:00:00 TS 19.7056 -113.891 40 hurdat_epa main 539 532 O_________P___ hurdat_epa EP021984 19.7000 -113.900 TS 40 0 19.7224 -113.863 2 37 2 339
1984150N12266 1984 35 EP MM BORIS 1984-06-16 21:00:00 TS 19.8038 -113.931 main 532 532 P_________P___ EP021984 19.8000 -113.935 TS 40 0 19.8152 -113.917 2 38 2 332
1984150N12266 1984 35 EP MM BORIS 1984-06-17 00:00:00 TS 19.9000 -114.000 40 hurdat_epa main 532 532 O_________O___ hurdat_epa EP021984 19.9000 -114.000 TS 40 0 19.9000 -114.000 2 40 3 317
1984150N12266 1984 35 EP MM BORIS 1984-06-17 03:00:00 TS 20.0032 -114.130 main 533 533 P_________P___ EP021984 20.0075 -114.135 TS 37 0 19.9903 -114.113 2 37 3 305
1984150N12266 1984 35 EP MM BORIS 1984-06-17 06:00:00 TS 20.0931 -114.289 35 hurdat_epa main 543 543 O_________P___ hurdat_epa EP021984 20.1000 -114.300 TS 35 0 20.0725 -114.255 2 35 3 298
1984150N12266 1984 35 EP MM BORIS 1984-06-17 09:00:00 TS 20.1540 -114.437 main 545 545 P_________P___ EP021984 20.1575 -114.443 TS 32 -1 20.1434 -114.419 2 32 3 290
1984150N12266 1984 35 EP MM BORIS 1984-06-17 12:00:00 TS 20.2000 -114.600 30 hurdat_epa main 560 560 O_________O___ hurdat_epa EP021984 20.2000 -114.600 TD 30 -1 20.2000 -114.600 1 30 3 287
1984150N12266 1984 35 EP MM BORIS 1984-06-17 15:00:00 TS 20.2532 -114.792 main 561 561 P_________P___ EP021984 20.2575 -114.792 TD 27 -1 20.2404 -114.791 1 28 4 284
1984150N12266 1984 35 EP MM BORIS 1984-06-17 18:00:00 TS 20.2919 -114.998 25 hurdat_epa main 573 573 O_________P___ hurdat_epa EP021984 20.3000 -115.000 TD 25 -1 20.2677 -114.990 1 27 4 278
1984150N12266 1984 35 EP MM BORIS 1984-06-17 21:00:00 TS 20.3041 -115.200 main 585 585 P_________P___ EP021984 20.3100 -115.203 TD 25 -1 20.2861 -115.194 1 26 4 271
1984150N12266 1984 35 EP MM BORIS 1984-06-18 00:00:00 TS 20.3000 -115.400 25 hurdat_epa main 597 O_________O___ hurdat_epa EP021984 20.3000 -115.400 TD 25 -1 20.3000 -115.400 1 25 4 269

About IBTrACS Database

This database is a web-friendly format of International Best Track Archive for Climate Stewardship (IBTrACS), a global best track data archive curated by NOAA dating back to 1842.

Updated: 2021-11-26